createdAt,value
2023-02-14T00:01:40.857Z,100.00
2023-02-14T00:04:45.849Z,100.00
2023-02-14T00:07:48.421Z,100.00
2023-02-14T00:10:51.413Z,100.00
2023-02-14T00:14:12.621Z,100.00
2023-02-14T00:17:15.626Z,100.00
2023-02-14T00:20:18.384Z,100.00
2023-02-14T00:23:21.640Z,100.00
2023-02-14T00:26:24.163Z,100.00
2023-02-14T00:29:31.632Z,100.00
2023-02-14T00:32:34.814Z,100.00
2023-02-14T00:35:38.696Z,100.00
2023-02-14T00:38:41.178Z,100.00
2023-02-14T00:41:44.931Z,100.00
2023-02-14T00:44:47.469Z,100.00
2023-02-14T00:47:50.263Z,100.00
2023-02-14T00:50:54.169Z,100.00
2023-02-14T00:53:57.065Z,100.00
2023-02-14T00:56:59.856Z,100.00
2023-02-14T01:00:02.894Z,100.00
2023-02-14T01:03:06.995Z,100.00
2023-02-14T01:06:10.350Z,100.00
2023-02-14T01:09:12.933Z,100.00
2023-02-14T01:12:15.821Z,100.00
2023-02-14T01:15:18.351Z,100.00
2023-02-14T01:18:21.334Z,100.00
2023-02-14T01:21:29.868Z,100.00
2023-02-14T01:24:32.834Z,100.00
2023-02-14T01:27:36.099Z,100.00
2023-02-14T01:30:39.081Z,100.00
2023-02-14T01:33:43.280Z,100.00
2023-02-14T01:36:46.203Z,100.00
2023-02-14T01:39:48.792Z,100.00
2023-02-14T01:42:51.878Z,100.00
2023-02-14T01:45:54.735Z,100.00
2023-02-14T01:49:05.795Z,100.00
2023-02-14T01:52:32.461Z,100.00
2023-02-14T01:55:39.531Z,100.00
2023-02-14T01:58:45.113Z,100.00
2023-02-14T02:01:50.195Z,100.00
2023-02-14T02:04:55.341Z,100.00
2023-02-14T02:08:01.258Z,100.00
2023-02-14T02:11:04.194Z,100.00
2023-02-14T02:14:06.827Z,100.00
2023-02-14T02:17:24.614Z,100.00
2023-02-14T02:20:39.395Z,100.00
2023-02-14T02:23:42.287Z,100.00
2023-02-14T02:27:10.052Z,100.00
2023-02-14T02:30:28.057Z,100.00
2023-02-14T02:33:52.541Z,100.00
2023-02-14T02:37:07.503Z,100.00
2023-02-14T02:40:16.132Z,100.00
2023-02-14T02:43:21.662Z,100.00
2023-02-14T02:46:49.534Z,100.00
2023-02-14T02:50:17.667Z,100.00
2023-02-14T02:53:48.169Z,100.00
2023-02-14T02:56:55.983Z,100.00
2023-02-14T02:59:59.651Z,100.00
2023-02-14T03:03:21.366Z,100.00
2023-02-14T03:06:23.962Z,100.00
2023-02-14T03:09:26.673Z,100.00
2023-02-14T03:12:33.659Z,100.00
2023-02-14T03:15:42.327Z,100.00
2023-02-14T03:19:10.769Z,100.00
2023-02-14T03:22:13.549Z,100.00
2023-02-14T03:25:23.219Z,100.00
2023-02-14T03:28:51.375Z,100.00
2023-02-14T03:32:12.730Z,100.00
2023-02-14T03:35:40.406Z,100.00
2023-02-14T03:38:59.366Z,100.00
2023-02-14T03:42:07.914Z,100.00
2023-02-14T03:45:15.545Z,100.00
2023-02-14T03:48:19.856Z,100.00
2023-02-14T03:51:23.327Z,100.00
2023-02-14T03:54:27.135Z,100.00
2023-02-14T03:57:35.722Z,100.00
2023-02-14T04:00:41.251Z,100.00
2023-02-14T04:03:44.990Z,100.00
2023-02-14T04:06:47.733Z,100.00
2023-02-14T04:09:51.328Z,100.00
2023-02-14T04:12:54.131Z,100.00
2023-02-14T04:15:57.191Z,100.00
2023-02-14T04:19:18.548Z,100.00
2023-02-14T04:22:21.519Z,100.00
2023-02-14T04:25:24.205Z,100.00
2023-02-14T04:28:27.101Z,100.00
2023-02-14T04:31:30.008Z,100.00
2023-02-14T04:34:33.015Z,100.00
2023-02-14T04:37:35.767Z,100.00
2023-02-14T04:40:44.306Z,100.00
2023-02-14T04:43:46.933Z,100.00
2023-02-14T04:46:49.982Z,100.00
2023-02-14T04:49:53.000Z,100.00
2023-02-14T04:52:56.234Z,100.00
2023-02-14T04:55:58.905Z,100.00
2023-02-14T04:59:01.628Z,100.00
2023-02-14T05:02:04.588Z,100.00
2023-02-14T05:05:09.111Z,100.00
2023-02-14T05:08:14.448Z,100.00
2023-02-14T05:11:17.638Z,100.00
2023-02-14T05:14:20.248Z,100.00
2023-02-14T05:17:23.671Z,100.00
2023-02-14T05:20:26.278Z,100.00
2023-02-14T05:23:29.166Z,100.00
2023-02-14T05:26:31.892Z,100.00
2023-02-14T05:29:35.187Z,100.00
2023-02-14T05:32:37.694Z,100.00
2023-02-14T05:35:40.529Z,100.00
2023-02-14T05:38:43.659Z,100.00
2023-02-14T05:41:46.645Z,100.00
2023-02-14T05:44:49.290Z,100.00
2023-02-14T05:47:52.268Z,100.00
2023-02-14T05:50:54.886Z,100.00
2023-02-14T05:54:00.201Z,100.00
2023-02-14T05:57:02.782Z,100.00
2023-02-14T06:00:07.345Z,100.00
2023-02-14T06:03:14.755Z,100.00
2023-02-14T06:06:17.563Z,100.00
2023-02-14T06:09:20.059Z,100.00
2023-02-14T06:12:23.044Z,100.00
2023-02-14T06:15:25.884Z,100.00
2023-02-14T06:18:29.689Z,100.00
2023-02-14T06:21:32.330Z,100.00
2023-02-14T06:24:35.497Z,100.00
2023-02-14T06:27:38.006Z,100.00
2023-02-14T06:30:40.989Z,100.00
2023-02-14T06:33:43.629Z,100.00
2023-02-14T06:36:46.421Z,100.00
2023-02-14T06:39:49.153Z,100.00
2023-02-14T06:42:52.080Z,100.00
2023-02-14T06:45:54.535Z,100.00
2023-02-14T06:48:57.552Z,100.00
2023-02-14T06:52:00.847Z,100.00
2023-02-14T06:55:03.678Z,100.00
2023-02-14T06:58:06.136Z,100.00
2023-02-14T07:01:09.392Z,100.00
2023-02-14T07:04:12.361Z,100.00
2023-02-14T07:07:15.267Z,100.00
2023-02-14T07:10:18.051Z,100.00
2023-02-14T07:13:20.905Z,100.00
2023-02-14T07:16:23.428Z,100.00
2023-02-14T07:19:26.849Z,100.00
2023-02-14T07:22:30.426Z,100.00
2023-02-14T07:25:33.460Z,100.00
2023-02-14T07:28:35.960Z,100.00
2023-02-14T07:31:39.086Z,100.00
2023-02-14T07:34:41.699Z,100.00
2023-02-14T07:37:44.585Z,100.00
2023-02-14T07:40:47.125Z,100.00
2023-02-14T07:43:50.799Z,100.00
2023-02-14T07:46:53.290Z,100.00
2023-02-14T07:49:56.062Z,100.00
2023-02-14T07:52:58.601Z,100.00
2023-02-14T07:56:01.539Z,100.00
2023-02-14T07:59:04.425Z,100.00
2023-02-14T08:02:07.668Z,100.00
2023-02-14T08:05:10.825Z,100.00
2023-02-14T08:08:13.388Z,100.00
2023-02-14T08:11:36.345Z,100.00
2023-02-14T08:14:39.003Z,100.00
2023-02-14T08:17:41.773Z,100.00
2023-02-14T08:20:46.055Z,100.00
2023-02-14T08:23:48.930Z,100.00
2023-02-14T08:26:51.512Z,100.00
2023-02-14T08:29:54.472Z,100.00
2023-02-14T08:32:57.124Z,100.00
2023-02-14T08:36:00.427Z,100.00
2023-02-14T08:39:04.582Z,100.00
2023-02-14T08:42:07.388Z,100.00
2023-02-14T08:45:10.209Z,100.00
2023-02-14T08:48:13.244Z,100.00
2023-02-14T08:51:16.753Z,100.00
2023-02-14T08:54:19.599Z,100.00
2023-02-14T08:57:22.182Z,98.36
2023-02-14T09:00:25.340Z,96.74
2023-02-14T09:03:28.017Z,95.14
2023-02-14T09:06:30.845Z,88.00
2023-02-14T09:09:33.475Z,85.60
2023-02-14T09:12:40.293Z,82.49
2023-02-14T09:15:43.620Z,82.47
2023-02-14T09:18:48.124Z,82.12
2023-02-14T09:21:50.901Z,80.50
2023-02-14T09:24:53.750Z,79.66
2023-02-14T09:27:56.382Z,79.31
2023-02-14T09:30:59.738Z,78.85
2023-02-14T09:34:22.092Z,77.77
2023-02-14T09:37:43.564Z,77.91
2023-02-14T09:40:47.025Z,76.80
2023-02-14T09:43:54.581Z,76.17
2023-02-14T09:47:01.829Z,75.54
2023-02-14T09:50:07.385Z,75.43
2023-02-14T09:53:16.614Z,74.77
2023-02-14T09:56:51.320Z,74.02
2023-02-14T10:00:24.519Z,75.19
2023-02-14T10:04:06.384Z,73.89
2023-02-14T10:07:20.882Z,72.97
2023-02-14T10:10:30.907Z,70.93
2023-02-14T10:14:01.882Z,69.24
2023-02-14T10:17:18.232Z,67.50
2023-02-14T10:20:26.743Z,66.61
2023-02-14T10:23:43.904Z,65.68
2023-02-14T10:26:48.648Z,63.23
2023-02-14T10:29:52.201Z,63.40
2023-02-14T10:33:08.282Z,62.62
2023-02-14T10:36:25.089Z,62.31
2023-02-14T10:39:49.540Z,60.51
2023-02-14T10:43:05.303Z,59.54
2023-02-14T10:46:38.877Z,59.35
2023-02-14T10:49:47.212Z,58.26
2023-02-14T10:53:05.538Z,56.47
2023-02-14T10:56:15.759Z,56.71
2023-02-14T10:59:25.379Z,55.39
2023-02-14T11:02:37.933Z,54.07
2023-02-14T11:05:46.778Z,52.20
2023-02-14T11:08:49.710Z,51.75
2023-02-14T11:11:55.360Z,51.14
2023-02-14T11:15:14.949Z,50.27
2023-02-14T11:18:33.089Z,49.47
2023-02-14T11:21:40.817Z,49.09
2023-02-14T11:24:45.422Z,48.12
2023-02-14T11:27:51.079Z,46.96
2023-02-14T11:30:53.911Z,47.71
2023-02-14T11:33:57.881Z,47.26
2023-02-14T11:37:00.989Z,50.09
2023-02-14T11:40:05.307Z,51.69
2023-02-14T11:43:14.425Z,49.11
2023-02-14T11:46:20.712Z,49.06
2023-02-14T11:49:32.131Z,48.75
2023-02-14T11:52:53.247Z,47.54
2023-02-14T11:55:58.432Z,46.32
2023-02-14T11:59:03.824Z,45.41
2023-02-14T12:02:32.863Z,44.71
2023-02-14T12:05:43.698Z,47.71
2023-02-14T12:08:46.923Z,51.20
2023-02-14T12:12:05.059Z,53.73
2023-02-14T12:15:27.086Z,55.38
2023-02-14T12:18:39.317Z,56.20
2023-02-14T12:22:03.943Z,53.63
2023-02-14T12:25:17.523Z,50.01
2023-02-14T12:28:24.989Z,48.62
2023-02-14T12:31:28.060Z,45.91
2023-02-14T12:34:30.614Z,45.34
2023-02-14T12:38:03.894Z,44.90
2023-02-14T12:41:17.138Z,44.29
2023-02-14T12:44:36.466Z,43.83
2023-02-14T12:47:46.828Z,43.87
2023-02-14T12:50:57.664Z,43.24
2023-02-14T12:54:21.861Z,42.61
2023-02-14T12:57:32.011Z,41.61
2023-02-14T13:00:59.440Z,41.73
2023-02-14T13:04:05.252Z,41.00
2023-02-14T13:07:16.698Z,41.74
2023-02-14T13:10:24.679Z,41.96
2023-02-14T13:13:33.294Z,42.39
2023-02-14T13:17:06.278Z,43.19
2023-02-14T13:20:08.747Z,42.24
2023-02-14T13:23:35.618Z,42.85
2023-02-14T13:26:40.615Z,42.92
2023-02-14T13:29:47.219Z,43.15
2023-02-14T13:32:51.283Z,44.75
2023-02-14T13:36:01.029Z,45.70
2023-02-14T13:39:04.233Z,46.03
2023-02-14T13:42:07.655Z,45.57
2023-02-14T13:45:34.995Z,47.34
2023-02-14T13:48:39.209Z,47.79
2023-02-14T13:51:49.822Z,49.28
2023-02-14T13:55:01.803Z,50.40
2023-02-14T13:58:07.088Z,51.16
2023-02-14T14:01:50.260Z,52.23
2023-02-14T14:04:53.142Z,54.05
2023-02-14T14:08:20.594Z,54.58
2023-02-14T14:11:23.425Z,54.59
2023-02-14T14:14:36.271Z,55.64
2023-02-14T14:17:46.112Z,57.31
2023-02-14T14:20:48.925Z,57.55
2023-02-14T14:24:13.802Z,58.09
2023-02-14T14:27:20.434Z,58.66
2023-02-14T14:30:31.269Z,59.01
2023-02-14T14:33:34.906Z,59.73
2023-02-14T14:36:37.875Z,60.50
2023-02-14T14:39:40.436Z,60.99
2023-02-14T14:42:43.412Z,60.96
2023-02-14T14:45:47.296Z,61.69
2023-02-14T14:48:51.976Z,61.82
2023-02-14T14:51:56.468Z,63.63
2023-02-14T14:55:00.096Z,63.49
2023-02-14T14:58:05.084Z,64.58
2023-02-14T15:01:13.262Z,65.21
2023-02-14T15:04:25.462Z,65.07
2023-02-14T15:07:34.916Z,65.43
2023-02-14T15:10:37.613Z,66.30
2023-02-14T15:13:49.898Z,66.47
2023-02-14T15:16:57.634Z,66.60
2023-02-14T15:20:04.410Z,66.53
2023-02-14T15:23:07.868Z,67.10
2023-02-14T15:26:34.073Z,68.07
2023-02-14T15:29:36.727Z,68.00
2023-02-14T15:32:39.630Z,69.31
2023-02-14T15:35:42.575Z,69.34
2023-02-14T15:38:51.214Z,69.95
2023-02-14T15:41:55.579Z,70.87
2023-02-14T15:45:22.515Z,71.93
2023-02-14T15:48:30.687Z,71.82
2023-02-14T15:51:36.356Z,72.70
2023-02-14T15:54:42.854Z,73.45
2023-02-14T15:57:49.786Z,74.26
2023-02-14T16:00:53.191Z,74.68
2023-02-14T16:03:59.894Z,75.35
2023-02-14T16:07:23.983Z,76.10
2023-02-14T16:10:29.894Z,76.96
2023-02-14T16:13:35.247Z,77.87
2023-02-14T16:17:01.633Z,78.31
2023-02-14T16:20:28.029Z,78.30
2023-02-14T16:23:31.566Z,78.74
2023-02-14T16:26:38.180Z,78.95
2023-02-14T16:29:41.588Z,78.94
2023-02-14T16:32:50.172Z,79.00
2023-02-14T16:35:53.366Z,79.22
2023-02-14T16:38:56.872Z,78.94
2023-02-14T16:41:59.842Z,79.09
2023-02-14T16:45:02.394Z,79.04
2023-02-14T16:48:05.745Z,79.42
2023-02-14T16:51:14.107Z,79.97
2023-02-14T16:54:20.658Z,80.61
2023-02-14T16:57:28.698Z,81.23
2023-02-14T17:00:31.791Z,81.94
2023-02-14T17:03:34.616Z,82.99
2023-02-14T17:06:39.749Z,83.09
2023-02-14T17:09:50.289Z,83.58
2023-02-14T17:12:53.421Z,83.77
2023-02-14T17:15:56.768Z,83.86
2023-02-14T17:19:02.337Z,83.90
2023-02-14T17:22:05.008Z,84.28
2023-02-14T17:25:09.048Z,84.50
2023-02-14T17:28:11.654Z,84.84
2023-02-14T17:31:14.841Z,85.52
2023-02-14T17:34:17.464Z,85.93
2023-02-14T17:37:20.845Z,86.15
2023-02-14T17:40:23.707Z,86.59
2023-02-14T17:43:26.969Z,87.07
2023-02-14T17:46:30.900Z,87.29
2023-02-14T17:49:34.211Z,87.58
2023-02-14T17:52:37.923Z,87.97
2023-02-14T17:55:41.071Z,88.47
2023-02-14T17:58:44.293Z,88.47
2023-02-14T18:01:47.903Z,88.81
2023-02-14T18:04:51.157Z,89.29
2023-02-14T18:07:53.974Z,89.63
2023-02-14T18:10:57.167Z,89.84
2023-02-14T18:14:01.826Z,89.85
2023-02-14T18:17:04.845Z,90.49
2023-02-14T18:20:08.084Z,90.62
2023-02-14T18:23:11.257Z,89.93
2023-02-14T18:26:16.798Z,86.91
2023-02-14T18:29:20.570Z,86.97
2023-02-14T18:32:23.855Z,87.41
2023-02-14T18:35:26.775Z,88.27
2023-02-14T18:38:29.754Z,89.09
2023-02-14T18:41:33.205Z,89.99
2023-02-14T18:44:36.318Z,90.62
2023-02-14T18:47:39.152Z,91.08
2023-02-14T18:50:41.965Z,91.51
2023-02-14T18:53:45.792Z,91.65
2023-02-14T18:56:48.601Z,89.58
2023-02-14T18:59:52.004Z,89.55
2023-02-14T19:02:56.898Z,89.43
2023-02-14T19:06:00.372Z,89.82
2023-02-14T19:09:06.973Z,90.08
2023-02-14T19:12:11.842Z,90.12
2023-02-14T19:15:14.626Z,90.38
2023-02-14T19:18:17.797Z,90.28
2023-02-14T19:21:23.677Z,87.50
2023-02-14T19:24:30.002Z,87.30
2023-02-14T19:27:34.037Z,87.74
2023-02-14T19:30:37.673Z,88.65
2023-02-14T19:33:43.020Z,89.50
2023-02-14T19:36:46.481Z,90.44
2023-02-14T19:39:49.477Z,91.09
2023-02-14T19:42:53.339Z,91.39
2023-02-14T19:45:57.198Z,91.83
2023-02-14T19:49:01.520Z,92.09
2023-02-14T19:52:06.254Z,92.32
2023-02-14T19:55:21.811Z,92.68
2023-02-14T19:58:26.074Z,92.83
2023-02-14T20:01:33.777Z,92.98
2023-02-14T20:04:37.137Z,93.66
2023-02-14T20:07:40.039Z,94.28
2023-02-14T20:10:43.513Z,94.70
2023-02-14T20:13:46.382Z,95.08
2023-02-14T20:16:50.466Z,95.83
2023-02-14T20:19:53.633Z,96.46
2023-02-14T20:22:56.831Z,96.87
2023-02-14T20:25:59.838Z,97.24
2023-02-14T20:29:05.400Z,97.44
2023-02-14T20:32:09.491Z,97.71
2023-02-14T20:35:13.543Z,97.95
2023-02-14T20:38:16.794Z,98.32
2023-02-14T20:41:20.562Z,98.67
2023-02-14T20:44:23.813Z,99.20
2023-02-14T20:47:26.956Z,99.43
2023-02-14T20:50:31.121Z,99.53
2023-02-14T20:53:34.242Z,99.63
2023-02-14T20:56:39.267Z,99.35
2023-02-14T20:59:44.844Z,99.12
2023-02-14T21:02:47.723Z,98.84
2023-02-14T21:05:50.803Z,98.81
2023-02-14T21:08:53.681Z,98.91
2023-02-14T21:11:58.380Z,99.06
2023-02-14T21:15:01.368Z,99.03
2023-02-14T21:18:05.251Z,98.70
2023-02-14T21:21:13.013Z,98.37
2023-02-14T21:24:16.449Z,98.31
2023-02-14T21:27:19.395Z,98.56
2023-02-14T21:30:22.876Z,98.77
2023-02-14T21:33:25.763Z,99.07
2023-02-14T21:36:31.296Z,99.49
2023-02-14T21:39:35.804Z,99.94
2023-02-14T21:42:39.467Z,100.00
2023-02-14T21:45:53.412Z,100.00
2023-02-14T21:49:19.227Z,100.00
2023-02-14T21:52:22.175Z,100.00
2023-02-14T21:55:25.363Z,100.00
2023-02-14T21:58:28.574Z,100.00
2023-02-14T22:01:34.627Z,100.00
2023-02-14T22:04:38.131Z,100.00
2023-02-14T22:07:41.102Z,100.00
2023-02-14T22:10:44.007Z,100.00
2023-02-14T22:13:46.924Z,100.00
2023-02-14T22:16:49.911Z,100.00
2023-02-14T22:19:52.744Z,100.00
2023-02-14T22:22:55.644Z,100.00
2023-02-14T22:26:11.154Z,100.00
2023-02-14T22:29:14.022Z,100.00
2023-02-14T22:32:17.630Z,100.00
2023-02-14T22:35:20.615Z,100.00
2023-02-14T22:38:23.654Z,100.00
2023-02-14T22:41:26.694Z,100.00
2023-02-14T22:44:29.232Z,100.00
2023-02-14T22:47:32.444Z,100.00
2023-02-14T22:50:35.644Z,100.00
2023-02-14T22:53:39.251Z,100.00
2023-02-14T22:56:51.540Z,100.00
2023-02-14T22:59:54.460Z,100.00
2023-02-14T23:02:57.174Z,100.00
2023-02-14T23:06:00.752Z,100.00
2023-02-14T23:09:05.717Z,100.00
2023-02-14T23:12:28.674Z,100.00
2023-02-14T23:15:50.351Z,100.00
2023-02-14T23:19:11.806Z,100.00
2023-02-14T23:22:19.454Z,100.00
2023-02-14T23:25:22.243Z,100.00
2023-02-14T23:28:25.241Z,100.00
2023-02-14T23:31:28.194Z,100.00
2023-02-14T23:34:32.558Z,100.00
2023-02-14T23:37:35.456Z,100.00
2023-02-14T23:40:56.848Z,100.00
2023-02-14T23:43:59.857Z,100.00
2023-02-14T23:47:04.588Z,100.00
2023-02-14T23:50:07.985Z,100.00
2023-02-14T23:53:10.566Z,100.00
2023-02-14T23:56:13.530Z,100.00
2023-02-14T23:59:16.530Z,100.00
